Time;durP1;ratioP1;P1;durP2;ratioP2;P2;SDS_P1;SDS_P2;PMS_P1;PMS_P2;Temp;Humidity;BMP_temperature;BMP_pressure;BME280_temperature;BME280_humidity;BME280_pressure;Samples;Min_cycle;Max_cycle;Signal;HPM_P1;HPM_P2
2022/01/08 15:05:08;;;;;;;5.28;3.83;;;;;;;;;;5250329;23;20061;-70
2022/01/08 15:07:35;;;;;;;5.32;3.85;;;;;;;;;;4868209;29;20105;-69
2022/01/08 15:10:02;;;;;;;6.68;3.60;;;;;;;;;;4864330;29;20421;-70
2022/01/08 15:12:28;;;;;;;5.60;3.45;;;;;;;;;;4871526;29;20062;-70
2022/01/08 15:14:55;;;;;;;6.85;3.47;;;;;;;;;;4869025;29;20057;-71
2022/01/08 15:17:21;;;;;;;6.97;3.60;;;;;;;;;;4866905;29;20060;-72
2022/01/08 15:19:48;;;;;;;5.45;3.08;;;;;;;;;;4868422;29;20057;-69
2022/01/08 15:22:14;;;;;;;5.05;3.25;;;;;;;;;;4869031;29;20539;-69
2022/01/08 15:24:40;;;;;;;4.68;3.50;;;;;;;;;;4875079;29;20064;-71
2022/01/08 15:27:07;;;;;;;4.38;3.42;;;;;;;;;;4877469;29;20058;-70
2022/01/08 15:29:34;;;;;;;6.57;3.90;;;;;;;;;;4879029;29;20058;-72
2022/01/08 15:32:00;;;;;;;4.32;3.40;;;;;;;;;;4873086;29;20148;-71
2022/01/08 15:34:26;;;;;;;4.93;3.95;;;;;;;;;;4867890;29;20062;-73
2022/01/08 15:36:53;;;;;;;8.85;4.55;;;;;;;;;;4875706;29;20502;-73
2022/01/08 15:39:19;;;;;;;4.53;3.75;;;;;;;;;;4878612;29;20049;-73
2022/01/08 15:41:46;;;;;;;5.60;3.80;;;;;;;;;;4878826;29;20054;-72
2022/01/08 15:44:13;;;;;;;5.88;3.80;;;;;;;;;;4875272;29;20132;-71
2022/01/08 15:46:39;;;;;;;4.72;3.72;;;;;;;;;;4863678;29;20057;-72
2022/01/08 15:49:07;;;;;;;4.15;3.47;;;;;;;;;;4874763;29;20152;-72
2022/01/08 15:51:34;;;;;;;5.57;4.22;;;;;;;;;;4876088;29;20599;-73
2022/01/08 15:54:01;;;;;;;5.90;3.40;;;;;;;;;;4877888;29;20066;-72
2022/01/08 15:56:32;;;;;;;7.78;3.92;;;;;;;;;;4880008;29;20092;-71
2022/01/08 15:58:59;;;;;;;5.82;3.83;;;;;;;;;;4875227;29;20056;-73
2022/01/08 16:01:26;;;;;;;8.00;4.53;;;;;;;;;;4878665;29;20058;-73
2022/01/08 16:03:52;;;;;;;5.72;4.40;;;;;;;;;;4873331;29;20076;-72
2022/01/08 16:06:19;;;;;;;7.10;5.45;;;;;;;;;;4876683;29;20062;-72
2022/01/08 16:08:45;;;;;;;5.43;4.47;;;;;;;;;;4877671;29;20060;-72
2022/01/08 16:11:11;;;;;;;6.53;4.20;;;;;;;;;;4872161;29;20509;-72
2022/01/08 16:13:38;;;;;;;6.07;4.88;;;;;;;;;;4876251;29;20157;-73
2022/01/08 16:16:04;;;;;;;8.18;5.43;;;;;;;;;;4870512;29;20061;-73
2022/01/08 16:18:31;;;;;;;6.18;5.28;;;;;;;;;;4864432;29;20141;-71
2022/01/08 16:20:57;;;;;;;6.53;5.38;;;;;;;;;;4869690;29;20049;-72
2022/01/08 16:23:24;;;;;;;7.65;5.25;;;;;;;;;;4864005;29;20421;-73
2022/01/08 16:25:52;;;;;;;10.85;5.97;;;;;;;;;;4870733;29;20063;-71
2022/01/08 16:28:19;;;;;;;7.10;5.78;;;;;;;;;;4881215;29;20053;-73
2022/01/08 16:30:45;;;;;;;7.78;6.10;;;;;;;;;;4873519;29;20076;-72
2022/01/08 16:33:13;;;;;;;6.28;5.38;;;;;;;;;;4875684;29;20420;-71
2022/01/08 16:35:42;;;;;;;6.47;5.28;;;;;;;;;;4874363;29;20507;-71
2022/01/08 16:38:10;;;;;;;10.95;6.20;;;;;;;;;;4863317;29;20061;-71
2022/01/08 16:40:36;;;;;;;9.70;5.97;;;;;;;;;;4874862;29;20548;-71
2022/01/08 16:43:02;;;;;;;6.65;5.72;;;;;;;;;;4876428;29;20451;-72
2022/01/08 16:45:29;;;;;;;7.45;5.63;;;;;;;;;;4876043;29;20060;-71
2022/01/08 16:47:55;;;;;;;7.15;5.60;;;;;;;;;;4863313;29;20520;-70
2022/01/08 16:50:22;;;;;;;6.53;4.88;;;;;;;;;;4870444;29;20054;-72
2022/01/08 16:52:48;;;;;;;9.05;5.90;;;;;;;;;;4874337;29;20092;-71
2022/01/08 16:55:14;;;;;;;13.02;6.60;;;;;;;;;;4878126;29;20093;-72
2022/01/08 16:57:41;;;;;;;7.57;5.15;;;;;;;;;;4865470;29;20054;-72
2022/01/08 17:00:09;;;;;;;8.48;6.05;;;;;;;;;;4873894;29;20068;-71
2022/01/08 17:02:42;;;;;;;7.43;5.90;;;;;;;;;;4868284;29;20061;-71
2022/01/08 17:05:09;;;;;;;7.55;5.63;;;;;;;;;;4869426;29;20076;-71
2022/01/08 17:07:36;;;;;;;7.15;5.93;;;;;;;;;;4866321;29;20054;-72
2022/01/08 17:10:03;;;;;;;6.30;5.70;;;;;;;;;;4870150;29;20098;-72
2022/01/08 17:12:29;;;;;;;9.93;6.28;;;;;;;;;;4872274;29;20085;-72
2022/01/08 17:14:55;;;;;;;7.25;5.55;;;;;;;;;;4884050;29;20528;-71
2022/01/08 17:17:22;;;;;;;5.47;4.97;;;;;;;;;;4874804;29;20050;-71
2022/01/08 17:19:49;;;;;;;9.30;6.10;;;;;;;;;;4866146;29;20600;-71
2022/01/08 17:22:18;;;;;;;8.98;5.75;;;;;;;;;;4847487;29;20060;-71
2022/01/08 17:24:44;;;;;;;7.20;5.30;;;;;;;;;;4878944;29;20152;-71
2022/01/08 17:27:16;;;;;;;7.88;5.28;;;;;;;;;;4872313;29;20061;-70
2022/01/08 17:29:43;;;;;;;6.80;5.40;;;;;;;;;;4865346;29;20108;-71
2022/01/08 17:32:09;;;;;;;7.82;6.43;;;;;;;;;;4874235;29;20050;-72
2022/01/08 17:34:36;;;;;;;7.95;5.30;;;;;;;;;;4877283;29;20060;-72
2022/01/08 17:37:02;;;;;;;7.30;5.28;;;;;;;;;;4877534;29;20061;-67
2022/01/08 17:39:28;;;;;;;8.75;5.70;;;;;;;;;;4871133;29;20057;-67
2022/01/08 17:41:55;;;;;;;6.20;5.50;;;;;;;;;;4886469;29;20053;-67
2022/01/08 17:44:21;;;;;;;6.32;4.88;;;;;;;;;;4867505;29;20058;-67
2022/01/08 17:46:47;;;;;;;6.30;5.20;;;;;;;;;;4874911;29;20093;-68
2022/01/08 17:49:13;;;;;;;6.72;5.50;;;;;;;;;;4869811;29;20421;-66
2022/01/08 17:51:40;;;;;;;5.75;5.03;;;;;;;;;;4877099;29;20058;-68
2022/01/08 17:54:07;;;;;;;7.85;6.13;;;;;;;;;;4864451;29;20486;-68
2022/01/08 17:56:33;;;;;;;6.45;5.78;;;;;;;;;;4878917;29;20053;-67
2022/01/08 17:59:02;;;;;;;6.82;5.43;;;;;;;;;;4868649;29;20062;-66
2022/01/08 18:01:28;;;;;;;6.75;5.65;;;;;;;;;;4863713;29;20426;-67
2022/01/08 18:03:56;;;;;;;7.60;5.60;;;;;;;;;;4875608;29;20091;-67
2022/01/08 18:06:22;;;;;;;7.70;5.97;;;;;;;;;;4873663;29;20534;-67
2022/01/08 18:08:49;;;;;;;12.02;5.45;;;;;;;;;;4879216;29;20149;-67
2022/01/08 18:11:16;;;;;;;6.47;5.85;;;;;;;;;;4880118;29;20058;-66
2022/01/08 18:13:42;;;;;;;8.30;5.75;;;;;;;;;;4876756;29;20053;-66
2022/01/08 18:16:08;;;;;;;6.35;5.68;;;;;;;;;;4875656;29;20069;-68
2022/01/08 18:18:35;;;;;;;6.28;5.57;;;;;;;;;;4874891;29;20060;-68
2022/01/08 18:21:01;;;;;;;7.07;6.10;;;;;;;;;;4872759;29;20050;-67
2022/01/08 18:23:27;;;;;;;7.57;6.10;;;;;;;;;;4869276;29;20058;-67
2022/01/08 18:25:54;;;;;;;6.65;5.35;;;;;;;;;;4872515;29;20569;-68
2022/01/08 18:28:20;;;;;;;6.97;5.68;;;;;;;;;;4879588;29;20064;-69
2022/01/08 18:30:46;;;;;;;6.22;5.50;;;;;;;;;;4876825;29;20049;-69
2022/01/08 18:33:13;;;;;;;6.65;5.35;;;;;;;;;;4876516;29;20053;-68
2022/01/08 18:35:39;;;;;;;5.55;4.88;;;;;;;;;;4869192;29;20098;-68
2022/01/08 18:38:05;;;;;;;8.13;6.10;;;;;;;;;;4878369;29;20152;-69
2022/01/08 18:40:32;;;;;;;5.47;4.70;;;;;;;;;;4874958;29;20517;-67
2022/01/08 18:42:58;;;;;;;6.13;5.53;;;;;;;;;;4877991;29;20516;-68
2022/01/08 18:45:27;;;;;;;10.95;6.00;;;;;;;;;;4871197;29;20092;-67
2022/01/08 18:47:53;;;;;;;7.60;6.35;;;;;;;;;;4873391;29;20054;-67
2022/01/08 18:50:21;;;;;;;5.60;5.10;;;;;;;;;;4877920;29;20151;-67
2022/01/08 18:52:47;;;;;;;6.53;5.50;;;;;;;;;;4865796;29;20054;-68
2022/01/08 18:55:15;;;;;;;6.28;5.68;;;;;;;;;;4876483;29;20144;-68
2022/01/08 18:57:41;;;;;;;5.95;5.15;;;;;;;;;;4872958;29;20069;-68
2022/01/08 19:00:10;;;;;;;6.13;5.50;;;;;;;;;;4872045;29;20060;-67
2022/01/08 19:02:36;;;;;;;7.13;5.93;;;;;;;;;;4867574;29;20528;-65
2022/01/08 19:05:04;;;;;;;5.70;5.20;;;;;;;;;;4873406;29;20065;-66
2022/01/08 19:07:30;;;;;;;7.50;5.25;;;;;;;;;;4863733;29;20175;-66
2022/01/08 19:09:56;;;;;;;8.35;5.57;;;;;;;;;;4875097;29;20148;-67
2022/01/08 19:12:23;;;;;;;10.05;5.53;;;;;;;;;;4878109;29;20485;-67
2022/01/08 19:14:49;;;;;;;6.65;5.97;;;;;;;;;;4867880;29;20058;-70
2022/01/08 19:17:15;;;;;;;7.35;6.18;;;;;;;;;;4863811;29;20089;-69
2022/01/08 19:19:41;;;;;;;8.05;5.82;;;;;;;;;;4862718;29;20502;-68
2022/01/08 19:22:08;;;;;;;7.38;6.30;;;;;;;;;;4860737;29;20521;-67
2022/01/08 19:24:34;;;;;;;7.50;6.68;;;;;;;;;;4873520;29;20054;-66
2022/01/08 19:27:01;;;;;;;7.47;5.88;;;;;;;;;;4854787;29;20126;-68
2022/01/08 19:29:27;;;;;;;7.25;6.15;;;;;;;;;;4862384;29;20065;-68
2022/01/08 19:31:53;;;;;;;7.28;6.05;;;;;;;;;;4873363;29;20068;-68
2022/01/08 19:34:20;;;;;;;7.82;6.38;;;;;;;;;;4876675;29;20067;-67
2022/01/08 19:36:47;;;;;;;9.63;6.03;;;;;;;;;;4874629;29;20513;-67
2022/01/08 19:39:13;;;;;;;8.70;6.43;;;;;;;;;;4873593;29;20085;-68
2022/01/08 19:41:40;;;;;;;7.95;5.90;;;;;;;;;;4871756;29;20065;-66
2022/01/08 19:44:06;;;;;;;7.80;6.75;;;;;;;;;;4870519;29;20061;-68
2022/01/08 19:46:33;;;;;;;8.00;6.65;;;;;;;;;;4873440;29;20149;-69
2022/01/08 19:48:59;;;;;;;6.47;5.88;;;;;;;;;;4871760;29;20054;-68
2022/01/08 19:51:26;;;;;;;7.57;6.40;;;;;;;;;;4867507;29;20967;-68
2022/01/08 19:53:52;;;;;;;8.02;6.75;;;;;;;;;;4873785;29;20137;-68
2022/01/08 19:56:18;;;;;;;7.78;6.13;;;;;;;;;;4869211;29;20061;-68
2022/01/08 19:58:45;;;;;;;8.65;6.20;;;;;;;;;;4869652;29;20065;-68
2022/01/08 20:01:11;;;;;;;12.75;6.25;;;;;;;;;;4873541;29;20060;-68
2022/01/08 20:03:37;;;;;;;7.93;6.47;;;;;;;;;;4872904;29;20140;-67
2022/01/08 20:06:04;;;;;;;6.40;5.80;;;;;;;;;;4871264;29;20065;-68
2022/01/08 20:08:30;;;;;;;8.38;6.75;;;;;;;;;;4871646;29;20612;-67
2022/01/08 20:10:56;;;;;;;6.28;5.68;;;;;;;;;;4866043;29;20064;-69
2022/01/08 20:13:24;;;;;;;6.45;5.78;;;;;;;;;;4872157;29;20092;-69
2022/01/08 20:15:50;;;;;;;7.28;5.07;;;;;;;;;;4864425;29;20050;-69
2022/01/08 20:18:17;;;;;;;7.93;5.85;;;;;;;;;;4868963;29;20061;-68
2022/01/08 20:20:44;;;;;;;9.02;6.00;;;;;;;;;;4873353;29;20108;-68
2022/01/08 20:23:10;;;;;;;11.80;6.28;;;;;;;;;;4868934;29;20061;-69
2022/01/08 20:25:37;;;;;;;7.80;6.45;;;;;;;;;;4874657;29;20058;-68
2022/01/08 20:28:03;;;;;;;6.30;5.15;;;;;;;;;;4871339;29;20506;-68
2022/01/08 20:30:34;;;;;;;7.47;5.50;;;;;;;;;;4875559;29;20065;-67
2022/01/08 20:33:00;;;;;;;7.07;5.50;;;;;;;;;;4870360;29;20063;-67
2022/01/08 20:35:29;;;;;;;6.90;5.32;;;;;;;;;;4873943;29;20140;-69
2022/01/08 20:37:59;;;;;;;6.00;4.95;;;;;;;;;;4876535;29;20053;-67
2022/01/08 20:40:28;;;;;;;8.13;5.22;;;;;;;;;;4878217;29;20085;-67
2022/01/08 20:42:58;;;;;;;5.80;4.60;;;;;;;;;;4873273;29;20064;-68
2022/01/08 20:45:25;;;;;;;8.93;5.32;;;;;;;;;;4873226;29;20068;-68
2022/01/08 20:47:52;;;;;;;10.02;5.43;;;;;;;;;;4876031;29;20057;-68
2022/01/08 20:50:25;;;;;;;6.40;4.60;;;;;;;;;;4872798;29;20061;-67
2022/01/08 20:52:52;;;;;;;5.28;4.32;;;;;;;;;;4875512;29;20057;-68
2022/01/08 20:55:21;;;;;;;5.78;5.07;;;;;;;;;;4874242;29;20079;-67
2022/01/08 20:57:48;;;;;;;5.43;4.30;;;;;;;;;;4874339;29;20966;-68
2022/01/08 21:00:15;;;;;;;6.22;4.65;;;;;;;;;;4877368;29;20061;-67
2022/01/08 21:02:41;;;;;;;5.68;4.15;;;;;;;;;;4873967;29;20055;-68
2022/01/08 21:05:08;;;;;;;6.75;4.60;;;;;;;;;;4878116;29;20061;-67
2022/01/08 21:07:34;;;;;;;5.05;4.20;;;;;;;;;;4867845;29;20068;-68
2022/01/08 21:10:01;;;;;;;4.80;4.38;;;;;;;;;;4866693;29;20149;-69
2022/01/08 21:12:33;;;;;;;6.13;4.60;;;;;;;;;;4872401;29;20061;-70
2022/01/08 21:15:00;;;;;;;7.15;4.55;;;;;;;;;;4879924;29;20107;-69
2022/01/08 21:17:26;;;;;;;4.60;4.03;;;;;;;;;;4875638;29;20080;-69
2022/01/08 21:19:53;;;;;;;5.80;4.47;;;;;;;;;;4872084;29;20054;-69
2022/01/08 21:22:19;;;;;;;5.03;4.20;;;;;;;;;;4867748;29;20141;-70
2022/01/08 21:24:48;;;;;;;5.00;4.50;;;;;;;;;;4870506;29;20106;-70
2022/01/08 21:27:14;;;;;;;6.22;4.88;;;;;;;;;;4867925;29;20499;-70
2022/01/08 21:29:42;;;;;;;5.30;4.55;;;;;;;;;;4866534;29;20072;-69
2022/01/08 21:32:09;;;;;;;5.30;4.65;;;;;;;;;;4870550;29;20139;-69
2022/01/08 21:34:39;;;;;;;6.50;4.72;;;;;;;;;;4880071;29;20064;-68
2022/01/08 21:37:06;;;;;;;4.18;3.75;;;;;;;;;;4880070;29;20144;-68
2022/01/08 21:39:36;;;;;;;5.45;4.45;;;;;;;;;;4877553;29;20062;-69
2022/01/08 21:42:04;;;;;;;4.53;4.10;;;;;;;;;;4881900;29;20540;-69
2022/01/08 21:44:31;;;;;;;4.65;4.00;;;;;;;;;;4879928;29;20057;-68
2022/01/08 21:46:58;;;;;;;4.47;4.07;;;;;;;;;;4879789;29;20104;-68
2022/01/08 21:49:25;;;;;;;4.70;4.15;;;;;;;;;;4876262;29;20510;-68
2022/01/08 21:51:51;;;;;;;4.70;4.25;;;;;;;;;;4863011;29;20062;-68
2022/01/08 21:54:18;;;;;;;6.07;3.85;;;;;;;;;;4871036;29;20092;-68
2022/01/08 21:56:44;;;;;;;4.88;4.03;;;;;;;;;;4879792;29;20057;-68
2022/01/08 21:59:12;;;;;;;13.57;5.68;;;;;;;;;;4865050;29;20054;-68
2022/01/08 22:01:39;;;;;;;5.05;4.32;;;;;;;;;;4846447;29;20065;-68
2022/01/08 22:04:06;;;;;;;5.47;4.18;;;;;;;;;;4879694;29;20509;-69
2022/01/08 22:06:34;;;;;;;4.80;3.92;;;;;;;;;;4878758;29;20066;-69
2022/01/08 22:09:00;;;;;;;7.10;4.45;;;;;;;;;;4866978;29;20062;-68
2022/01/08 22:11:27;;;;;;;7.35;4.38;;;;;;;;;;4877763;29;20121;-68
2022/01/08 22:13:54;;;;;;;5.55;4.97;;;;;;;;;;4875573;29;20518;-68
2022/01/08 22:16:21;;;;;;;4.95;4.45;;;;;;;;;;4868534;29;20513;-68
2022/01/08 22:18:47;;;;;;;5.85;4.45;;;;;;;;;;4864200;29;20080;-69
2022/01/08 22:21:13;;;;;;;5.07;4.45;;;;;;;;;;4877845;29;20569;-68
2022/01/08 22:23:40;;;;;;;5.15;4.13;;;;;;;;;;4877785;29;20066;-67
2022/01/08 22:26:06;;;;;;;5.15;4.30;;;;;;;;;;4865686;29;20058;-67
2022/01/08 22:28:32;;;;;;;5.20;4.28;;;;;;;;;;4876994;29;20473;-69
2022/01/08 22:30:58;;;;;;;4.30;3.90;;;;;;;;;;4876787;29;20057;-68
2022/01/08 22:33:25;;;;;;;5.35;3.78;;;;;;;;;;4859122;29;20060;-68
2022/01/08 22:35:51;;;;;;;5.35;3.60;;;;;;;;;;4867915;29;20146;-69
2022/01/08 22:38:17;;;;;;;4.07;3.65;;;;;;;;;;4876860;29;20060;-68
2022/01/08 22:40:46;;;;;;;5.75;4.10;;;;;;;;;;4893209;29;20057;-68
2022/01/08 22:43:12;;;;;;;4.28;3.80;;;;;;;;;;4879181;29;20057;-68
2022/01/08 22:45:38;;;;;;;4.10;3.25;;;;;;;;;;4876359;29;20064;-68
2022/01/08 22:48:05;;;;;;;3.70;3.40;;;;;;;;;;4878813;29;20129;-69
2022/01/08 22:50:31;;;;;;;3.30;3.00;;;;;;;;;;4879068;29;20065;-70
2022/01/08 22:52:58;;;;;;;3.83;3.33;;;;;;;;;;4872453;29;20068;-69
2022/01/08 22:55:24;;;;;;;3.55;3.25;;;;;;;;;;4878763;29;20124;-69
2022/01/08 22:57:51;;;;;;;3.35;3.05;;;;;;;;;;4871053;29;20057;-68
2022/01/08 23:00:20;;;;;;;3.53;3.22;;;;;;;;;;4867370;29;20097;-69
2022/01/08 23:02:49;;;;;;;3.20;2.90;;;;;;;;;;4875001;29;20061;-69
2022/01/08 23:05:16;;;;;;;4.07;3.30;;;;;;;;;;4864295;29;20093;-69
2022/01/08 23:07:42;;;;;;;4.78;3.50;;;;;;;;;;4877973;29;20053;-68
2022/01/08 23:10:13;;;;;;;6.05;3.67;;;;;;;;;;4874730;29;20077;-68
2022/01/08 23:12:40;;;;;;;4.38;3.33;;;;;;;;;;4870395;29;20058;-68
2022/01/08 23:15:07;;;;;;;4.68;4.22;;;;;;;;;;4860747;29;20060;-69
2022/01/08 23:17:34;;;;;;;5.15;3.30;;;;;;;;;;4877730;29;20061;-68
2022/01/08 23:20:00;;;;;;;4.05;3.63;;;;;;;;;;4878031;29;20509;-69
2022/01/08 23:22:26;;;;;;;4.50;4.07;;;;;;;;;;4877795;29;20056;-69
2022/01/08 23:24:53;;;;;;;5.25;4.28;;;;;;;;;;4868598;29;20058;-69
2022/01/08 23:27:19;;;;;;;4.63;3.95;;;;;;;;;;4872510;29;20057;-69
2022/01/08 23:29:47;;;;;;;4.75;4.05;;;;;;;;;;4846712;29;20053;-68
2022/01/08 23:32:13;;;;;;;5.05;4.43;;;;;;;;;;4873430;29;20064;-68
2022/01/08 23:34:39;;;;;;;6.22;4.43;;;;;;;;;;4877061;29;20054;-68
2022/01/08 23:37:06;;;;;;;5.85;5.25;;;;;;;;;;4875295;29;20409;-68
2022/01/08 23:39:32;;;;;;;5.35;4.82;;;;;;;;;;4869020;29;20097;-68
2022/01/08 23:41:59;;;;;;;6.40;4.97;;;;;;;;;;4888177;29;20064;-68
2022/01/08 23:44:28;;;;;;;8.05;5.50;;;;;;;;;;4878178;29;20089;-68
2022/01/08 23:46:56;;;;;;;5.70;4.97;;;;;;;;;;4866919;29;20122;-68
2022/01/08 23:49:26;;;;;;;6.72;5.82;;;;;;;;;;4878401;29;20053;-68
2022/01/08 23:51:53;;;;;;;6.05;5.45;;;;;;;;;;4877077;29;20179;-68
2022/01/08 23:54:19;;;;;;;6.03;5.43;;;;;;;;;;4867222;29;20525;-68
2022/01/08 23:56:47;;;;;;;5.95;5.35;;;;;;;;;;4873118;29;20054;-68
2022/01/08 23:59:13;;;;;;;6.03;5.43;;;;;;;;;;4868267;29;20064;-68
